createdAt,value
2018-07-02T00:00:15.039Z,12.80
2018-07-02T00:02:44.436Z,12.70
2018-07-02T00:05:13.596Z,12.70
2018-07-02T00:07:42.319Z,12.70
2018-07-02T00:10:11.623Z,13.00
2018-07-02T00:12:40.699Z,12.90
2018-07-02T00:15:09.721Z,12.80
2018-07-02T00:17:38.980Z,12.80
2018-07-02T00:20:08.704Z,12.80
2018-07-02T00:22:38.061Z,12.80
2018-07-02T00:25:06.842Z,12.70
2018-07-02T00:27:35.802Z,12.70
2018-07-02T00:30:04.703Z,12.70
2018-07-02T00:32:34.143Z,12.60
2018-07-02T00:35:03.388Z,12.60
2018-07-02T00:37:33.321Z,12.70
2018-07-02T00:40:02.246Z,12.70
2018-07-02T00:42:31.058Z,12.70
2018-07-02T00:45:00.589Z,12.60
2018-07-02T00:47:29.908Z,12.60
2018-07-02T00:49:59.168Z,12.50
2018-07-02T00:52:28.142Z,12.50
2018-07-02T00:54:57.087Z,12.60
2018-07-02T00:57:26.512Z,12.40
2018-07-02T01:00:00.512Z,12.50
2018-07-02T01:02:30.094Z,12.30
2018-07-02T01:04:59.595Z,12.20
2018-07-02T01:07:28.733Z,12.30
2018-07-02T01:09:57.796Z,12.20
2018-07-02T01:12:27.100Z,12.20
2018-07-02T01:14:56.110Z,12.20
2018-07-02T01:17:26.036Z,12.20
2018-07-02T01:19:55.159Z,12.20
2018-07-02T01:22:24.707Z,12.10
2018-07-02T01:24:53.599Z,12.10
2018-07-02T01:27:22.759Z,12.00
2018-07-02T01:29:51.941Z,12.00
2018-07-02T01:34:49.742Z,11.90
2018-07-02T01:37:19.822Z,11.80
2018-07-02T01:39:48.816Z,11.80
2018-07-02T01:42:18.164Z,11.70
2018-07-02T01:44:47.064Z,11.80
2018-07-02T01:47:16.866Z,11.70
2018-07-02T01:49:45.986Z,11.60
2018-07-02T01:52:15.126Z,11.60
2018-07-02T01:54:44.426Z,11.70
2018-07-02T01:57:13.193Z,11.50
2018-07-02T01:59:48.593Z,11.50
2018-07-02T02:02:17.789Z,11.50
2018-07-02T02:04:47.669Z,11.50
2018-07-02T02:07:17.591Z,11.50
2018-07-02T02:09:46.533Z,11.50
2018-07-02T02:12:15.893Z,11.40
2018-07-02T02:14:45.294Z,11.50
2018-07-02T02:17:14.375Z,11.30
2018-07-02T02:19:43.396Z,11.30
2018-07-02T02:22:12.565Z,11.20
2018-07-02T02:24:41.775Z,11.30
2018-07-02T02:27:11.036Z,11.30
2018-07-02T02:29:40.137Z,11.20
2018-07-02T02:32:09.706Z,11.20
2018-07-02T02:34:39.382Z,11.00
2018-07-02T02:39:37.428Z,11.00
2018-07-02T02:42:06.397Z,11.00
2018-07-02T02:44:35.321Z,11.10
2018-07-02T02:47:04.426Z,11.00
2018-07-02T02:49:33.949Z,10.90
2018-07-02T02:52:03.404Z,10.90
2018-07-02T02:54:32.665Z,10.90
2018-07-02T02:57:02.895Z,10.90
2018-07-02T02:59:32.615Z,10.90
2018-07-02T03:02:02.466Z,10.80
2018-07-02T03:04:32.147Z,11.00
2018-07-02T03:07:01.183Z,10.90
2018-07-02T03:09:30.648Z,10.90
2018-07-02T03:12:00.047Z,10.90
2018-07-02T03:14:36.689Z,10.80
2018-07-02T03:17:05.732Z,10.80
2018-07-02T03:19:34.852Z,10.80
2018-07-02T03:22:03.891Z,10.80
2018-07-02T03:24:32.931Z,10.80
2018-07-02T03:27:01.852Z,10.80
2018-07-02T03:29:30.936Z,10.80
2018-07-02T03:31:59.994Z,10.80
2018-07-02T03:34:29.936Z,10.80
2018-07-02T03:37:00.864Z,10.80
2018-07-02T03:39:30.917Z,10.80
2018-07-02T03:55:11.479Z,10.80
2018-07-02T03:58:02.101Z,10.70
2018-07-02T04:03:31.922Z,10.80
2018-07-02T04:06:14.997Z,10.70
2018-07-02T04:08:43.861Z,11.30
2018-07-02T04:11:13.288Z,11.20
2018-07-02T04:13:42.930Z,10.90
2018-07-02T04:16:12.265Z,10.80
2018-07-02T04:18:41.393Z,10.70
2018-07-02T04:21:11.286Z,10.70
2018-07-02T04:23:45.454Z,10.70
2018-07-02T04:26:15.855Z,10.70
